Time;durP1;ratioP1;P1;durP2;ratioP2;P2;SDS_P1;SDS_P2;PMS_P1;PMS_P2;Temp;Humidity;BMP_temperature;BMP_pressure;BME280_temperature;BME280_humidity;BME280_pressure;Samples;Min_cycle;Max_cycle;Signal;HPM_P1;HPM_P2
2022/11/28 00:02:16;;;;;;;;;;;17.30;76.20;;;;;;10380135;28;19973;-69
2022/11/28 00:07:18;;;;;;;;;;;17.30;76.10;;;;;;10381863;28;19964;-69
2022/11/28 00:12:20;;;;;;;;;;;17.30;76.10;;;;;;10382727;28;20290;-69
2022/11/28 00:17:22;;;;;;;;;;;17.20;76.00;;;;;;10382395;28;19941;-69
2022/11/28 00:22:26;;;;;;;;;;;17.20;76.00;;;;;;10383973;28;20028;-69
2022/11/28 00:27:28;;;;;;;;;;;17.20;75.90;;;;;;10388919;28;20408;-69
2022/11/28 00:32:30;;;;;;;;;;;17.20;75.90;;;;;;10388430;28;19933;-69
2022/11/28 00:37:31;;;;;;;;;;;17.20;75.80;;;;;;10388615;28;20020;-69
2022/11/28 00:42:33;;;;;;;;;;;17.20;75.80;;;;;;10386905;28;19976;-69
2022/11/28 00:47:35;;;;;;;;;;;17.20;75.80;;;;;;10388865;28;19980;-69
2022/11/28 00:52:37;;;;;;;;;;;17.10;75.60;;;;;;10386469;28;19964;-69
2022/11/28 00:57:39;;;;;;;;;;;17.10;75.50;;;;;;10388900;28;19937;-69
2022/11/28 01:02:40;;;;;;;;;;;17.10;75.50;;;;;;10388075;28;20012;-68
2022/11/28 01:07:42;;;;;;;;;;;17.10;75.60;;;;;;10386914;28;19940;-69
2022/11/28 01:12:44;;;;;;;;;;;17.10;75.50;;;;;;10388155;28;19940;-69
2022/11/28 01:17:46;;;;;;;;;;;17.00;75.60;;;;;;10387446;28;19934;-69
2022/11/28 01:22:48;;;;;;;;;;;17.10;75.50;;;;;;10386802;28;20025;-69
2022/11/28 01:27:49;;;;;;;;;;;17.00;75.30;;;;;;10385447;28;20377;-69
2022/11/28 01:32:51;;;;;;;;;;;17.00;75.30;;;;;;10386002;28;19933;-69
2022/11/28 01:37:53;;;;;;;;;;;17.00;75.40;;;;;;10386347;28;20389;-69
2022/11/28 01:42:55;;;;;;;;;;;16.90;75.30;;;;;;10386528;28;19940;-69
2022/11/28 01:47:58;;;;;;;;;;;16.90;75.20;;;;;;10386802;28;20409;-69
2022/11/28 01:53:02;;;;;;;;;;;16.90;75.40;;;;;;10385382;28;20383;-68
2022/11/28 01:58:04;;;;;;;;;;;16.90;75.20;;;;;;10385814;28;19969;-69
2022/11/28 02:03:11;;;;;;;;;;;16.90;75.30;;;;;;10800954;23;20047;-67
2022/11/28 02:08:13;;;;;;;;;;;16.90;75.20;;;;;;10425414;28;19940;-69
2022/11/28 02:13:18;;;;;;;;;;;16.80;75.20;;;;;;10427003;28;19933;-70
2022/11/28 02:18:40;;;;;;;;;;;16.80;75.10;;;;;;10425842;28;20012;-69
2022/11/28 02:23:52;;;;;;;;;;;16.80;75.10;;;;;;10426617;28;20029;-70
2022/11/28 02:29:09;;;;;;;;;;;16.80;75.10;;;;;;10425776;28;20023;-67
2022/11/28 02:34:21;;;;;;;;;;;16.80;75.00;;;;;;10426544;28;19965;-67
2022/11/28 02:39:30;;;;;;;;;;;16.80;75.10;;;;;;10425194;28;20868;-69
2022/11/28 02:44:41;;;;;;;;;;;16.80;75.10;;;;;;10425983;28;19977;-69
2022/11/28 02:49:46;;;;;;;;;;;16.80;75.00;;;;;;10425558;28;19933;-69
2022/11/28 02:54:48;;;;;;;;;;;16.80;75.00;;;;;;10425948;28;19976;-69
2022/11/28 02:59:50;;;;;;;;;;;16.80;75.00;;;;;;10425394;28;20384;-69
2022/11/28 03:04:55;;;;;;;;;;;16.80;75.00;;;;;;10424797;28;19933;-67
2022/11/28 03:10:03;;;;;;;;;;;16.80;75.00;;;;;;10425734;28;20411;-67
2022/11/28 03:15:06;;;;;;;;;;;16.70;74.70;;;;;;10424787;28;20612;-67
2022/11/28 03:20:17;;;;;;;;;;;16.70;74.90;;;;;;10425275;28;20033;-67
2022/11/28 03:25:26;;;;;;;;;;;16.70;74.90;;;;;;10425055;28;19976;-68
2022/11/28 03:30:30;;;;;;;;;;;16.70;74.90;;;;;;10424054;28;20016;-68
2022/11/28 03:35:35;;;;;;;;;;;16.70;74.90;;;;;;10424489;28;19934;-69
2022/11/28 03:40:43;;;;;;;;;;;16.70;74.90;;;;;;10424554;28;19934;-68
2022/11/28 03:45:47;;;;;;;;;;;16.70;74.60;;;;;;10423542;28;19940;-68
2022/11/28 03:51:00;;;;;;;;;;;16.70;74.60;;;;;;10423136;28;20024;-68
2022/11/28 03:56:02;;;;;;;;;;;16.70;74.60;;;;;;10424428;28;20016;-68
2022/11/28 04:01:10;;;;;;;;;;;16.60;74.60;;;;;;10431597;28;19940;-68
2022/11/28 04:06:12;;;;;;;;;;;16.60;74.60;;;;;;10430277;28;20824;-68
2022/11/28 04:11:29;;;;;;;;;;;16.60;74.60;;;;;;10431355;28;19975;-69
2022/11/28 04:16:54;;;;;;;;;;;16.60;74.70;;;;;;10429790;28;20026;-69
2022/11/28 04:22:15;;;;;;;;;;;16.60;74.50;;;;;;10421966;28;20048;-68
2022/11/28 04:27:19;;;;;;;;;;;16.60;74.80;;;;;;10430007;28;19976;-69
2022/11/28 04:32:22;;;;;;;;;;;16.60;75.00;;;;;;10428517;28;20027;-69
2022/11/28 04:37:25;;;;;;;;;;;16.60;74.90;;;;;;10429862;28;20402;-68
2022/11/28 04:42:31;;;;;;;;;;;16.70;74.90;;;;;;10429624;28;20749;-68
2022/11/28 04:47:33;;;;;;;;;;;16.70;74.90;;;;;;10429347;28;20012;-69
2022/11/28 04:52:34;;;;;;;;;;;16.70;74.90;;;;;;10429263;28;20785;-68
2022/11/28 04:57:38;;;;;;;;;;;16.70;75.80;;;;;;10429237;28;19934;-68
2022/11/28 05:02:41;;;;;;;;;;;16.70;74.80;;;;;;10428446;28;19940;-68
2022/11/28 05:07:43;;;;;;;;;;;16.70;74.80;;;;;;10428977;28;19939;-69
2022/11/28 05:12:45;;;;;;;;;;;16.60;74.80;;;;;;10428901;28;19940;-68
2022/11/28 05:17:46;;;;;;;;;;;16.70;74.80;;;;;;10429329;28;19964;-68
2022/11/28 05:22:48;;;;;;;;;;;16.70;74.70;;;;;;10428726;28;20135;-69
2022/11/28 05:27:49;;;;;;;;;;;16.60;74.70;;;;;;10429135;28;20016;-68
2022/11/28 05:32:51;;;;;;;;;;;16.60;74.70;;;;;;10428732;28;20383;-69
2022/11/28 05:37:53;;;;;;;;;;;16.60;74.80;;;;;;10427439;28;19977;-68
2022/11/28 05:42:56;;;;;;;;;;;16.60;74.80;;;;;;10427215;28;19934;-69
2022/11/28 05:47:58;;;;;;;;;;;16.60;74.70;;;;;;10427072;28;20526;-69
2022/11/28 05:53:00;;;;;;;;;;;16.60;74.60;;;;;;10427648;28;20032;-68
2022/11/28 05:58:01;;;;;;;;;;;16.60;74.60;;;;;;10426902;28;20024;-69
2022/11/28 06:03:03;;;;;;;;;;;16.70;74.60;;;;;;10427283;28;20024;-68
2022/11/28 06:08:05;;;;;;;;;;;16.70;74.50;;;;;;10427213;28;19981;-68
2022/11/28 06:13:07;;;;;;;;;;;16.70;74.30;;;;;;10427248;28;19973;-68
2022/11/28 06:18:08;;;;;;;;;;;16.70;74.20;;;;;;10427388;28;20454;-68
2022/11/28 06:23:10;;;;;;;;;;;16.70;74.10;;;;;;10426349;28;20358;-69
2022/11/28 06:28:12;;;;;;;;;;;16.70;74.10;;;;;;10425887;28;19977;-69
2022/11/28 06:33:13;;;;;;;;;;;16.70;74.60;;;;;;10426328;28;20423;-69
2022/11/28 06:38:15;;;;;;;;;;;16.70;74.70;;;;;;10426925;28;20023;-68
2022/11/28 06:43:16;;;;;;;;;;;16.70;75.10;;;;;;10426141;28;20392;-71
2022/11/28 06:48:19;;;;;;;;;;;16.70;75.00;;;;;;10426105;28;20036;-68
2022/11/28 06:53:20;;;;;;;;;;;16.70;75.00;;;;;;10425754;28;20010;-69
2022/11/28 06:58:22;;;;;;;;;;;16.70;74.70;;;;;;10425298;28;20016;-68
2022/11/28 07:03:24;;;;;;;;;;;16.60;74.60;;;;;;10424616;28;20024;-68
2022/11/28 07:08:26;;;;;;;;;;;16.60;74.70;;;;;;10423847;28;19933;-68
2022/11/28 07:13:28;;;;;;;;;;;16.60;74.70;;;;;;10425333;28;20416;-68
2022/11/28 07:18:29;;;;;;;;;;;16.60;74.70;;;;;;10424611;28;19937;-69
2022/11/28 07:23:31;;;;;;;;;;;16.50;74.70;;;;;;10424760;28;19965;-69
2022/11/28 07:28:33;;;;;;;;;;;16.50;74.70;;;;;;10424563;28;19933;-68
2022/11/28 07:33:35;;;;;;;;;;;16.50;74.70;;;;;;10427630;28;20036;-68
2022/11/28 07:38:37;;;;;;;;;;;16.50;74.70;;;;;;10432027;28;20063;-68
2022/11/28 07:43:39;;;;;;;;;;;16.50;74.70;;;;;;10431063;28;19939;-69
2022/11/28 07:48:41;;;;;;;;;;;16.50;74.70;;;;;;10431230;28;20028;-68
2022/11/28 07:53:42;;;;;;;;;;;16.50;74.80;;;;;;10431401;28;20036;-69
2022/11/28 07:58:44;;;;;;;;;;;16.50;74.70;;;;;;10430798;28;20426;-69
2022/11/28 08:03:46;;;;;;;;;;;16.50;74.70;;;;;;10429761;28;19933;-69
2022/11/28 08:08:48;;;;;;;;;;;16.50;74.80;;;;;;10430694;28;19980;-68
2022/11/28 08:13:50;;;;;;;;;;;16.40;74.50;;;;;;10430163;28;20025;-69
2022/11/28 08:18:59;;;;;;;;;;;16.40;74.60;;;;;;10430874;28;19934;-68
2022/11/28 08:24:01;;;;;;;;;;;16.40;74.60;;;;;;10430274;28;19999;-68
2022/11/28 08:29:03;;;;;;;;;;;16.40;74.60;;;;;;10429104;28;19933;-68
2022/11/28 08:34:07;;;;;;;;;;;16.40;74.70;;;;;;10429503;28;20036;-68
2022/11/28 08:39:10;;;;;;;;;;;16.40;74.60;;;;;;10429554;28;19934;-69
2022/11/28 08:44:27;;;;;;;;;;;16.40;74.70;;;;;;10429482;28;19933;-68
2022/11/28 08:49:31;;;;;;;;;;;16.40;74.70;;;;;;10430499;28;19960;-67
2022/11/28 08:54:33;;;;;;;;;;;16.30;74.60;;;;;;10429944;28;20456;-68
2022/11/28 08:59:35;;;;;;;;;;;16.30;74.70;;;;;;10428227;28;19934;-68
2022/11/28 09:04:36;;;;;;;;;;;16.30;74.70;;;;;;10429123;28;19934;-70
2022/11/28 09:09:38;;;;;;;;;;;16.30;74.80;;;;;;10428693;28;20026;-69
2022/11/28 09:14:40;;;;;;;;;;;16.30;74.90;;;;;;10429282;28;20195;-69
2022/11/28 09:19:42;;;;;;;;;;;16.30;74.80;;;;;;10428481;28;20024;-69
2022/11/28 09:24:44;;;;;;;;;;;16.30;74.90;;;;;;10427816;28;19934;-67
2022/11/28 09:29:46;;;;;;;;;;;16.40;74.90;;;;;;10427600;28;20043;-68
2022/11/28 09:34:49;;;;;;;;;;;16.40;74.70;;;;;;10426908;28;20821;-69
2022/11/28 09:39:51;;;;;;;;;;;16.40;75.10;;;;;;10425725;28;20363;-70
2022/11/28 09:45:15;;;;;;;;;;;16.40;75.00;;;;;;10425479;28;19929;-70
2022/11/28 09:50:43;;;;;;;;;;;16.40;74.90;;;;;;10427838;28;20004;-70
2022/11/28 09:55:46;;;;;;;;;;;16.40;74.90;;;;;;10421668;28;19964;-69
2022/11/28 10:00:55;;;;;;;;;;;16.40;75.00;;;;;;10426768;28;19988;-70
2022/11/28 10:06:16;;;;;;;;;;;16.40;75.20;;;;;;10424870;28;20416;-69
2022/11/28 10:11:28;;;;;;;;;;;16.40;75.00;;;;;;10426446;28;19965;-69
2022/11/28 10:16:32;;;;;;;;;;;16.40;75.00;;;;;;10425524;28;19937;-69
2022/11/28 10:21:34;;;;;;;;;;;16.40;75.00;;;;;;10425729;28;20554;-69
2022/11/28 10:26:37;;;;;;;;;;;16.40;74.90;;;;;;10426214;28;19939;-69
2022/11/28 10:31:44;;;;;;;;;;;16.40;74.90;;;;;;10427033;28;19937;-69
2022/11/28 10:36:59;;;;;;;;;;;16.40;74.90;;;;;;10423923;28;20160;-68
2022/11/28 10:42:10;;;;;;;;;;;16.40;74.90;;;;;;10426118;28;19984;-67
2022/11/28 10:47:35;;;;;;;;;;;16.40;74.90;;;;;;10425249;28;20785;-68
2022/11/28 10:52:45;;;;;;;;;;;16.40;75.20;;;;;;10425408;28;19933;-68
2022/11/28 10:57:59;;;;;;;;;;;16.40;75.10;;;;;;10425428;28;20020;-69
2022/11/28 11:03:01;;;;;;;;;;;16.30;75.00;;;;;;10424982;28;20023;-69
2022/11/28 11:08:12;;;;;;;;;;;16.30;75.20;;;;;;10423553;28;20305;-69
2022/11/28 11:13:15;;;;;;;;;;;16.30;75.30;;;;;;10425565;28;19933;-68
2022/11/28 11:18:28;;;;;;;;;;;16.30;75.40;;;;;;10425121;28;19940;-68
2022/11/28 11:23:30;;;;;;;;;;;16.30;75.50;;;;;;10423505;28;19976;-68
2022/11/28 11:28:46;;;;;;;;;;;16.30;75.50;;;;;;10424657;28;19940;-68
2022/11/28 11:33:50;;;;;;;;;;;16.30;75.50;;;;;;10424826;28;19934;-68
2022/11/28 11:39:03;;;;;;;;;;;16.30;75.50;;;;;;10424302;28;19964;-68
2022/11/28 11:44:14;;;;;;;;;;;16.30;75.60;;;;;;10423824;28;20007;-68
2022/11/28 11:49:35;;;;;;;;;;;16.30;75.70;;;;;;10422420;28;19973;-68
2022/11/28 11:54:55;;;;;;;;;;;16.30;75.70;;;;;;10424644;28;19985;-68
2022/11/28 12:00:05;;;;;;;;;;;16.30;75.70;;;;;;10406398;28;19984;-67
2022/11/28 12:05:12;;;;;;;;;;;16.30;75.70;;;;;;10423605;28;19941;-68
2022/11/28 12:10:16;;;;;;;;;;;16.30;75.70;;;;;;10424357;28;19984;-68
2022/11/28 12:15:24;;;;;;;;;;;16.30;75.70;;;;;;10422082;28;19941;-69
2022/11/28 12:20:37;;;;;;;;;;;16.30;75.70;;;;;;10428666;28;19981;-68
2022/11/28 12:25:54;;;;;;;;;;;16.30;75.80;;;;;;10430180;28;19940;-67
2022/11/28 12:31:08;;;;;;;;;;;16.30;75.50;;;;;;10412630;28;19995;-68
2022/11/28 12:36:25;;;;;;;;;;;16.30;78.20;;;;;;10429870;28;20388;-68
2022/11/28 12:41:35;;;;;;;;;;;16.30;76.90;;;;;;10429904;28;19933;-69
2022/11/28 12:46:47;;;;;;;;;;;16.30;77.10;;;;;;10429979;28;19940;-69
2022/11/28 12:51:58;;;;;;;;;;;16.30;77.00;;;;;;10429939;28;19934;-68
2022/11/28 12:57:13;;;;;;;;;;;16.30;76.70;;;;;;10430164;28;20029;-68
2022/11/28 13:02:15;;;;;;;;;;;16.30;76.60;;;;;;10429388;28;19969;-68
2022/11/28 13:07:37;;;;;;;;;;;16.30;76.50;;;;;;10428665;28;19940;-68
2022/11/28 13:12:49;;;;;;;;;;;16.30;76.50;;;;;;10428920;28;19934;-68
2022/11/28 13:17:56;;;;;;;;;;;16.30;76.40;;;;;;10411218;28;20028;-69
2022/11/28 13:23:05;;;;;;;;;;;16.30;76.30;;;;;;10428048;28;19937;-68
2022/11/28 13:28:09;;;;;;;;;;;16.20;76.30;;;;;;10428337;28;20019;-68
2022/11/28 13:33:21;;;;;;;;;;;16.20;76.20;;;;;;10428007;28;19968;-69
2022/11/28 13:38:30;;;;;;;;;;;16.20;76.20;;;;;;10428542;28;20411;-74
2022/11/28 13:43:45;;;;;;;;;;;16.20;76.30;;;;;;10427987;28;19971;-69
2022/11/28 13:48:47;;;;;;;;;;;16.20;76.30;;;;;;10427673;28;19977;-68
2022/11/28 13:54:18;;;;;;;;;;;16.20;76.10;;;;;;10427562;28;19934;-67
2022/11/28 13:59:21;;;;;;;;;;;16.20;76.10;;;;;;10426437;28;20016;-68
2022/11/28 14:04:23;;;;;;;;;;;16.20;76.20;;;;;;10426780;28;20937;-68
2022/11/28 14:09:46;;;;;;;;;;;16.20;76.10;;;;;;10426949;28;19940;-67
2022/11/28 14:14:54;;;;;;;;;;;16.20;75.90;;;;;;10426624;28;19934;-69
2022/11/28 14:19:59;;;;;;;;;;;16.30;75.90;;;;;;10426405;28;19987;-69
2022/11/28 14:25:09;;;;;;;;;;;16.30;75.90;;;;;;10425980;28;19973;-67
2022/11/28 14:30:30;;;;;;;;;;;16.30;75.80;;;;;;10426485;28;19938;-67
2022/11/28 14:35:52;;;;;;;;;;;16.30;75.70;;;;;;10424952;28;20039;-69
2022/11/28 14:40:54;;;;;;;;;;;16.20;75.60;;;;;;10425450;28;20841;-68
2022/11/28 14:46:14;;;;;;;;;;;16.20;75.70;;;;;;10425948;28;20323;-67
2022/11/28 14:51:16;;;;;;;;;;;16.20;75.70;;;;;;10425149;28;19933;-68
2022/11/28 14:56:22;;;;;;;;;;;16.20;75.70;;;;;;10426395;28;19933;-66
2022/11/28 15:01:33;;;;;;;;;;;16.20;75.70;;;;;;10424686;28;20392;-68
2022/11/28 15:06:36;;;;;;;;;;;16.20;75.70;;;;;;10424653;28;19984;-68
2022/11/28 15:11:38;;;;;;;;;;;16.20;75.80;;;;;;10424898;28;19934;-68
2022/11/28 15:16:42;;;;;;;;;;;16.20;75.70;;;;;;10424965;28;19940;-69
2022/11/28 15:21:51;;;;;;;;;;;16.20;75.70;;;;;;10424421;28;20371;-67
2022/11/28 15:26:54;;;;;;;;;;;16.10;75.60;;;;;;10425000;28;19940;-67
2022/11/28 15:31:58;;;;;;;;;;;16.10;75.70;;;;;;10423919;28;19934;-68
2022/11/28 15:37:04;;;;;;;;;;;16.10;75.60;;;;;;10423604;28;20032;-68
2022/11/28 15:42:21;;;;;;;;;;;16.10;75.60;;;;;;10424137;28;20027;-68
2022/11/28 15:47:23;;;;;;;;;;;16.10;75.70;;;;;;10424334;28;20024;-68
2022/11/28 15:52:25;;;;;;;;;;;16.10;75.60;;;;;;10423484;28;19977;-69
2022/11/28 15:57:27;;;;;;;;;;;16.10;75.60;;;;;;10430296;28;19934;-69
2022/11/28 16:02:35;;;;;;;;;;;16.10;75.60;;;;;;10430699;28;20024;-68
2022/11/28 16:07:41;;;;;;;;;;;16.10;75.70;;;;;;10429444;28;20083;-68
2022/11/28 16:12:43;;;;;;;;;;;16.10;75.60;;;;;;10431242;28;20069;-67
2022/11/28 16:17:45;;;;;;;;;;;16.10;75.60;;;;;;10430825;28;19934;-68
2022/11/28 16:22:46;;;;;;;;;;;16.00;75.50;;;;;;10429030;28;19933;-69
2022/11/28 16:27:52;;;;;;;;;;;16.10;75.60;;;;;;10430337;28;20024;-67
2022/11/28 16:32:55;;;;;;;;;;;16.00;75.50;;;;;;10429569;28;20024;-67
2022/11/28 16:38:14;;;;;;;;;;;16.10;75.50;;;;;;10412099;28;20028;-68
2022/11/28 16:43:21;;;;;;;;;;;16.10;75.50;;;;;;10428406;28;19983;-69
2022/11/28 16:48:25;;;;;;;;;;;16.20;75.60;;;;;;10428889;28;20020;-69
2022/11/28 16:53:43;;;;;;;;;;;16.30;75.50;;;;;;10428712;28;19933;-68
2022/11/28 16:58:45;;;;;;;;;;;16.50;75.30;;;;;;10427857;28;19976;-69
2022/11/28 17:03:48;;;;;;;;;;;16.60;74.90;;;;;;10427852;28;20027;-69
2022/11/28 17:08:50;;;;;;;;;;;16.70;74.70;;;;;;10427876;28;19934;-68
2022/11/28 17:13:52;;;;;;;;;;;16.80;74.50;;;;;;10428524;28;20024;-68
2022/11/28 17:18:58;;;;;;;;;;;16.90;74.40;;;;;;10428840;28;19937;-68
2022/11/28 17:24:00;;;;;;;;;;;17.10;74.20;;;;;;10428412;28;19933;-68
2022/11/28 17:29:02;;;;;;;;;;;17.20;73.80;;;;;;10427924;28;19934;-68
2022/11/28 17:34:03;;;;;;;;;;;17.30;73.40;;;;;;10428037;28;20307;-68
2022/11/28 17:39:05;;;;;;;;;;;17.40;73.30;;;;;;10427993;28;19934;-67
2022/11/28 17:44:14;;;;;;;;;;;17.40;73.20;;;;;;10427805;28;20005;-68
2022/11/28 17:49:15;;;;;;;;;;;17.40;73.20;;;;;;10425839;28;19933;-67
2022/11/28 17:54:18;;;;;;;;;;;17.30;73.30;;;;;;10427234;28;20024;-68
2022/11/28 17:59:20;;;;;;;;;;;17.20;73.30;;;;;;10427095;28;19933;-67
2022/11/28 18:04:22;;;;;;;;;;;17.20;73.50;;;;;;10426367;28;19940;-68
2022/11/28 18:09:23;;;;;;;;;;;17.10;73.60;;;;;;10426887;28;20444;-68
2022/11/28 18:14:25;;;;;;;;;;;17.10;73.90;;;;;;10424711;28;19934;-68
2022/11/28 18:19:27;;;;;;;;;;;17.00;74.00;;;;;;10424017;28;20439;-67
2022/11/28 18:24:29;;;;;;;;;;;17.10;75.10;;;;;;10425669;28;19955;-67
2022/11/28 18:29:30;;;;;;;;;;;17.20;74.10;;;;;;10426418;28;20304;-66
2022/11/28 18:34:32;;;;;;;;;;;17.40;73.80;;;;;;10425061;28;20024;-67
2022/11/28 18:39:34;;;;;;;;;;;17.60;73.60;;;;;;10426276;28;20031;-67
2022/11/28 18:44:35;;;;;;;;;;;17.80;73.20;;;;;;10425913;28;20806;-67
2022/11/28 18:49:37;;;;;;;;;;;17.80;72.90;;;;;;10425785;28;20036;-67
2022/11/28 18:54:39;;;;;;;;;;;17.80;72.90;;;;;;10424899;28;20032;-67
2022/11/28 18:59:41;;;;;;;;;;;17.90;72.90;;;;;;10425155;28;20456;-67
2022/11/28 19:04:51;;;;;;;;;;;18.00;72.80;;;;;;10424429;28;20052;-68
2022/11/28 19:09:53;;;;;;;;;;;18.00;72.90;;;;;;10424121;28;19934;-67
2022/11/28 19:14:55;;;;;;;;;;;18.00;72.90;;;;;;10425205;28;19989;-67
2022/11/28 19:20:03;;;;;;;;;;;17.90;72.90;;;;;;10424414;28;20036;-66
2022/11/28 19:25:05;;;;;;;;;;;17.90;73.00;;;;;;10423943;28;20363;-66
2022/11/28 19:30:07;;;;;;;;;;;18.00;72.90;;;;;;10423952;28;19965;-67
2022/11/28 19:35:08;;;;;;;;;;;18.10;72.80;;;;;;10421974;28;19934;-68
2022/11/28 19:40:10;;;;;;;;;;;18.10;72.80;;;;;;10423871;28;20289;-68
2022/11/28 19:45:12;;;;;;;;;;;18.00;72.80;;;;;;10422324;28;20454;-68
2022/11/28 19:50:14;;;;;;;;;;;17.90;72.80;;;;;;10424170;28;20024;-67
2022/11/28 19:55:16;;;;;;;;;;;17.80;73.10;;;;;;10406081;28;19933;-66
2022/11/28 20:00:18;;;;;;;;;;;17.70;73.30;;;;;;10422780;28;19992;-67
2022/11/28 20:05:19;;;;;;;;;;;17.70;73.50;;;;;;10421822;28;20024;-68
2022/11/28 20:10:21;;;;;;;;;;;17.50;73.70;;;;;;10423305;28;19933;-67
2022/11/28 20:15:23;;;;;;;;;;;17.50;73.90;;;;;;10422594;28;20029;-67
2022/11/28 20:20:25;;;;;;;;;;;17.40;74.00;;;;;;10423040;28;20384;-67
2022/11/28 20:25:27;;;;;;;;;;;17.40;74.20;;;;;;10422886;28;20035;-68
2022/11/28 20:30:29;;;;;;;;;;;17.30;74.40;;;;;;10420791;28;19965;-68
2022/11/28 20:35:30;;;;;;;;;;;17.30;74.50;;;;;;10421989;28;20023;-67
2022/11/28 20:40:32;;;;;;;;;;;17.20;74.50;;;;;;10426251;28;20466;-68
2022/11/28 20:45:34;;;;;;;;;;;17.20;74.60;;;;;;10430152;28;20139;-66
2022/11/28 20:50:36;;;;;;;;;;;17.10;74.50;;;;;;10429046;28;19937;-68
2022/11/28 20:55:38;;;;;;;;;;;17.10;74.60;;;;;;10428668;28;20384;-66
2022/11/28 21:00:39;;;;;;;;;;;17.00;74.60;;;;;;10430170;28;20027;-67
2022/11/28 21:05:41;;;;;;;;;;;16.90;74.60;;;;;;10428534;28;20020;-67
2022/11/28 21:10:43;;;;;;;;;;;16.90;74.70;;;;;;10428279;28;20455;-67
2022/11/28 21:15:47;;;;;;;;;;;16.90;74.60;;;;;;10428161;28;25857;-67
2022/11/28 21:20:48;;;;;;;;;;;16.80;74.50;;;;;;10428099;28;20542;-67
2022/11/28 21:25:50;;;;;;;;;;;16.80;74.60;;;;;;10428756;28;20376;-67
2022/11/28 21:30:51;;;;;;;;;;;16.80;74.60;;;;;;10426962;28;19933;-68
2022/11/28 21:35:53;;;;;;;;;;;16.70;74.50;;;;;;10427769;28;19933;-69
2022/11/28 21:40:55;;;;;;;;;;;16.70;74.70;;;;;;10428029;28;19976;-68
2022/11/28 21:46:04;;;;;;;;;;;16.70;74.70;;;;;;10427684;28;20028;-67
2022/11/28 21:51:05;;;;;;;;;;;16.70;74.70;;;;;;10426141;28;20431;-67
2022/11/28 21:56:08;;;;;;;;;;;16.60;74.60;;;;;;10427183;28;19933;-68
2022/11/28 22:01:11;;;;;;;;;;;16.60;74.80;;;;;;10426225;28;20396;-67
2022/11/28 22:06:13;;;;;;;;;;;16.60;74.70;;;;;;10425754;28;19933;-66
2022/11/28 22:11:16;;;;;;;;;;;16.60;74.90;;;;;;10427707;28;19960;-66
2022/11/28 22:16:19;;;;;;;;;;;16.50;74.90;;;;;;10426343;28;19934;-67
2022/11/28 22:21:21;;;;;;;;;;;16.50;74.90;;;;;;10424497;28;20044;-68
2022/11/28 22:26:43;;;;;;;;;;;16.50;75.00;;;;;;10426719;28;19939;-67
2022/11/28 22:31:45;;;;;;;;;;;16.50;75.00;;;;;;10426091;28;19971;-67
2022/11/28 22:36:46;;;;;;;;;;;16.50;74.80;;;;;;10425397;28;20923;-67
2022/11/28 22:41:48;;;;;;;;;;;16.40;74.80;;;;;;10426120;28;19933;-67
2022/11/28 22:46:50;;;;;;;;;;;16.40;74.70;;;;;;10425065;28;20016;-67
2022/11/28 22:51:52;;;;;;;;;;;16.40;74.70;;;;;;10425872;28;19972;-67
2022/11/28 22:56:54;;;;;;;;;;;16.40;74.60;;;;;;10425185;28;20631;-67
2022/11/28 23:01:56;;;;;;;;;;;16.40;74.60;;;;;;10425878;28;19933;-67
2022/11/28 23:06:58;;;;;;;;;;;16.40;74.60;;;;;;10425492;28;19937;-68
2022/11/28 23:12:00;;;;;;;;;;;16.40;74.60;;;;;;10424598;28;20036;-67
2022/11/28 23:17:01;;;;;;;;;;;16.40;74.60;;;;;;10425184;28;19960;-68
2022/11/28 23:22:03;;;;;;;;;;;16.40;74.70;;;;;;10425451;28;19934;-67
2022/11/28 23:27:05;;;;;;;;;;;16.30;74.60;;;;;;10425143;28;20016;-68
2022/11/28 23:32:07;;;;;;;;;;;16.30;74.60;;;;;;10424951;28;19940;-67
2022/11/28 23:37:08;;;;;;;;;;;16.30;74.50;;;;;;10424013;28;20332;-67
2022/11/28 23:42:10;;;;;;;;;;;16.30;74.50;;;;;;10424559;28;20299;-68
2022/11/28 23:47:12;;;;;;;;;;;16.30;74.40;;;;;;10424314;28;19965;-67
2022/11/28 23:52:13;;;;;;;;;;;16.30;74.50;;;;;;10424186;28;19933;-68
2022/11/28 23:57:15;;;;;;;;;;;16.30;74.50;;;;;;10423702;28;19933;-67
